Time;durP1;ratioP1;P1;durP2;ratioP2;P2;SDS_P1;SDS_P2;PMS_P1;PMS_P2;Temp;Humidity;BMP_temperature;BMP_pressure;BME280_temperature;BME280_humidity;BME280_pressure;Samples;Min_cycle;Max_cycle;Signal;HPM_P1;HPM_P2
2022/04/19 00:00:09;;;;;;;;;;;;;;;;;;338055;29;824;-27
2022/04/19 00:00:20;;;;;;;;;;;;;;;;;;337622;29;967;-27
2022/04/19 00:00:30;;;;;;;;;;;;;;;;;;338082;28;819;-26
2022/04/19 00:00:47;;;;;;;;;;;;;;;;;;337861;29;906;-26
2022/04/19 00:00:58;;;;;;;;;;;;;;;;;;336485;28;950;-29
2022/04/19 00:01:09;;;;;;;;;;;;;;;;;;336737;28;1269;-27
2022/04/19 00:01:19;;;;;;;;;;;;;;;;;;336499;28;1063;-26
2022/04/19 00:01:30;;;;;;;;;;;;;;;;;;336722;29;794;-26
2022/04/19 00:01:40;;;;;;;;;;;;;;;;;;336509;29;1072;-29
2022/04/19 00:01:50;;;;;;;;;;;;;;;;;;337934;28;1116;-26
2022/04/19 00:02:01;;;;;;;;;;;;;;;;;;337993;29;989;-28
2022/04/19 00:02:11;;;;;;;;;;;;;;;;;;337693;28;1137;-28
2022/04/19 00:02:22;;;;;;;;;;;;;;;;;;337946;29;998;-28
2022/04/19 00:02:32;;;;;;;;;;;;;;;;;;338017;29;807;-27
2022/04/19 00:02:42;;;;;;;;;;;;;;;;;;337878;29;899;-26
2022/04/19 00:02:53;;;;;;;;;;;;;;;;;;337773;29;1001;-26
2022/04/19 00:03:04;;;;;;;;;;;;;;;;;;338160;28;941;-27
2022/04/19 00:03:15;;;;;;;;;;;;;;;;;;337857;29;973;-26
2022/04/19 00:03:25;;;;;;;;;;;;;;;;;;337913;28;1105;-25
2022/04/19 00:03:35;;;;;;;;;;;;;;;;;;337960;29;812;-26
2022/04/19 00:03:46;;;;;;;;;;;;;;;;;;338109;29;831;-27
2022/04/19 00:03:56;;;;;;;;;;;;;;;;;;337743;29;934;-27
2022/04/19 00:04:06;;;;;;;;;;;;;;;;;;337860;29;1970;-26
2022/04/19 00:04:19;;;;;;;;;;;;;;;;;;337687;29;941;-27
2022/04/19 00:04:29;;;;;;;;;;;;;;;;;;338025;28;918;-28
2022/04/19 00:04:39;;;;;;;;;;;;;;;;;;337761;29;998;-25
2022/04/19 00:04:49;;;;;;;;;;;;;;;;;;337993;29;895;-26
2022/04/19 00:05:00;;;;;;;;;;;;;;;;;;337925;29;1034;-26
2022/04/19 00:05:10;;;;;;;;;;;;;;;;;;337833;28;1017;-27
2022/04/19 00:05:20;;;;;;;;;;;;;;;;;;337878;29;1113;-27
2022/04/19 00:05:32;;;;;;;;;;;;;;;;;;337989;29;898;-25
2022/04/19 00:05:43;;;;;;;;;;;;;;;;;;338100;28;855;-27
2022/04/19 00:05:53;;;;;;;;;;;;;;;;;;337909;29;1027;-26
2022/04/19 00:06:04;;;;;;;;;;;;;;;;;;337935;29;953;-26
2022/04/19 00:06:14;;;;;;;;;;;;;;;;;;337643;29;966;-26
2022/04/19 00:06:24;;;;;;;;;;;;;;;;;;338038;29;835;-26
2022/04/19 00:06:36;;;;;;;;;;;;;;;;;;337675;29;938;-27
2022/04/19 00:06:46;;;;;;;;;;;;;;;;;;338136;28;962;-26
2022/04/19 00:06:56;;;;;;;;;;;;;;;;;;337975;29;1000;-26
2022/04/19 00:07:09;;;;;;;;;;;;;;;;;;338094;29;843;-24
2022/04/19 00:07:20;;;;;;;;;;;;;;;;;;337449;28;909;-27
2022/04/19 00:07:30;;;;;;;;;;;;;;;;;;343364;28;793;-28
2022/04/19 00:07:41;;;;;;;;;;;;;;;;;;343482;28;846;-27
2022/04/19 00:07:52;;;;;;;;;;;;;;;;;;343418;28;1079;-26
2022/04/19 00:08:05;;;;;;;;;;;;;;;;;;343531;28;1062;-26
2022/04/19 00:08:16;;;;;;;;;;;;;;;;;;343121;28;894;-26
2022/04/19 00:08:26;;;;;;;;;;;;;;;;;;338918;28;1133;-27
2022/04/19 00:08:37;;;;;;;;;;;;;;;;;;337956;28;859;-28
2022/04/19 00:08:50;;;;;;;;;;;;;;;;;;338041;29;836;-25
2022/04/19 00:09:00;;;;;;;;;;;;;;;;;;337814;28;974;-26
2022/04/19 00:09:10;;;;;;;;;;;;;;;;;;337897;29;787;-27
2022/04/19 00:09:21;;;;;;;;;;;;;;;;;;338044;29;787;-26
2022/04/19 00:09:31;;;;;;;;;;;;;;;;;;337933;29;938;-26
2022/04/19 00:09:41;;;;;;;;;;;;;;;;;;337852;29;988;-26
2022/04/19 00:09:52;;;;;;;;;;;;;;;;;;338140;29;847;-27
2022/04/19 00:10:03;;;;;;;;;;;;;;;;;;337854;29;954;-26
2022/04/19 00:10:14;;;;;;;;;;;;;;;;;;337580;29;1158;-26
2022/04/19 00:10:28;;;;;;;;;;;;;;;;;;338113;29;799;-26
2022/04/19 00:10:39;;;;;;;;;;;;;;;;;;338002;28;1038;-26
2022/04/19 00:10:49;;;;;;;;;;;;;;;;;;338000;28;1176;-25
2022/04/19 00:10:59;;;;;;;;;;;;;;;;;;337915;28;1161;-27
2022/04/19 00:11:10;;;;;;;;;;;;;;;;;;338022;28;859;-27
2022/04/19 00:11:21;;;;;;;;;;;;;;;;;;338005;29;929;-26
2022/04/19 00:11:31;;;;;;;;;;;;;;;;;;337771;28;988;-27
2022/04/19 00:11:42;;;;;;;;;;;;;;;;;;337978;28;831;-26
2022/04/19 00:11:52;;;;;;;;;;;;;;;;;;338143;29;914;-26
2022/04/19 00:12:02;;;;;;;;;;;;;;;;;;337934;28;902;-26
2022/04/19 00:12:13;;;;;;;;;;;;;;;;;;337534;29;961;-27
2022/04/19 00:12:23;;;;;;;;;;;;;;;;;;338135;28;930;-27
2022/04/19 00:12:33;;;;;;;;;;;;;;;;;;337970;29;886;-28
2022/04/19 00:12:44;;;;;;;;;;;;;;;;;;337957;28;955;-26
2022/04/19 00:12:55;;;;;;;;;;;;;;;;;;338031;28;827;-27
2022/04/19 00:13:06;;;;;;;;;;;;;;;;;;338018;28;906;-28
2022/04/19 00:13:17;;;;;;;;;;;;;;;;;;337786;28;764;-27
2022/04/19 00:13:30;;;;;;;;;;;;;;;;;;338032;28;1202;-27
2022/04/19 00:13:40;;;;;;;;;;;;;;;;;;338025;28;794;-28
2022/04/19 00:13:51;;;;;;;;;;;;;;;;;;338089;28;934;-28
2022/04/19 00:14:01;;;;;;;;;;;;;;;;;;337818;28;947;-27
2022/04/19 00:14:11;;;;;;;;;;;;;;;;;;337689;28;993;-28
2022/04/19 00:14:21;;;;;;;;;;;;;;;;;;338007;28;946;-25
2022/04/19 00:14:34;;;;;;;;;;;;;;;;;;337958;28;931;-26
2022/04/19 00:14:44;;;;;;;;;;;;;;;;;;337801;29;950;-26
2022/04/19 00:14:54;;;;;;;;;;;;;;;;;;338060;29;776;-28
2022/04/19 00:15:05;;;;;;;;;;;;;;;;;;338041;28;827;-27
2022/04/19 00:15:16;;;;;;;;;;;;;;;;;;337695;29;1027;-26
2022/04/19 00:15:27;;;;;;;;;;;;;;;;;;338046;28;957;-26
2022/04/19 00:15:40;;;;;;;;;;;;;;;;;;337932;28;767;-27
2022/04/19 00:15:51;;;;;;;;;;;;;;;;;;337983;29;970;-26
2022/04/19 00:16:01;;;;;;;;;;;;;;;;;;337984;28;802;-26
2022/04/19 00:16:14;;;;;;;;;;;;;;;;;;337830;28;795;-27
2022/04/19 00:16:24;;;;;;;;;;;;;;;;;;337980;28;1023;-27
2022/04/19 00:16:35;;;;;;;;;;;;;;;;;;337982;29;857;-27
2022/04/19 00:16:46;;;;;;;;;;;;;;;;;;337896;28;1715;-28
2022/04/19 00:16:56;;;;;;;;;;;;;;;;;;337963;28;890;-26
2022/04/19 00:17:07;;;;;;;;;;;;;;;;;;337988;29;1043;-26
2022/04/19 00:17:19;;;;;;;;;;;;;;;;;;337803;28;917;-26
2022/04/19 00:17:29;;;;;;;;;;;;;;;;;;338097;28;957;-26
2022/04/19 00:17:40;;;;;;;;;;;;;;;;;;337827;28;942;-27
2022/04/19 00:17:50;;;;;;;;;;;;;;;;;;338077;28;882;-26
2022/04/19 00:18:02;;;;;;;;;;;;;;;;;;337933;28;1125;-27
2022/04/19 00:18:13;;;;;;;;;;;;;;;;;;337750;29;993;-27
2022/04/19 00:18:24;;;;;;;;;;;;;;;;;;337859;28;986;-26
2022/04/19 00:18:35;;;;;;;;;;;;;;;;;;337913;28;945;-26
2022/04/19 00:18:45;;;;;;;;;;;;;;;;;;338043;29;988;-26
2022/04/19 00:18:55;;;;;;;;;;;;;;;;;;337851;28;1202;-25
2022/04/19 00:19:06;;;;;;;;;;;;;;;;;;338104;28;991;-27
2022/04/19 00:19:16;;;;;;;;;;;;;;;;;;337671;28;886;-28
2022/04/19 00:19:28;;;;;;;;;;;;;;;;;;338049;29;835;-26
2022/04/19 00:19:38;;;;;;;;;;;;;;;;;;337805;29;982;-25
2022/04/19 00:19:49;;;;;;;;;;;;;;;;;;338144;29;972;-28
2022/04/19 00:19:59;;;;;;;;;;;;;;;;;;337933;28;921;-27
2022/04/19 00:20:10;;;;;;;;;;;;;;;;;;337899;28;1050;-27
2022/04/19 00:20:21;;;;;;;;;;;;;;;;;;338029;29;895;-27
2022/04/19 00:20:33;;;;;;;;;;;;;;;;;;337945;28;843;-27
2022/04/19 00:20:43;;;;;;;;;;;;;;;;;;337918;28;1336;-27
2022/04/19 00:20:54;;;;;;;;;;;;;;;;;;338011;28;759;-29
2022/04/19 00:21:05;;;;;;;;;;;;;;;;;;338028;28;941;-26
2022/04/19 00:21:16;;;;;;;;;;;;;;;;;;337824;28;890;-27
2022/04/19 00:21:27;;;;;;;;;;;;;;;;;;337985;28;1205;-26
2022/04/19 00:21:37;;;;;;;;;;;;;;;;;;337909;29;926;-26
2022/04/19 00:21:48;;;;;;;;;;;;;;;;;;337860;28;1004;-26
2022/04/19 00:21:58;;;;;;;;;;;;;;;;;;337779;28;997;-26
2022/04/19 00:22:08;;;;;;;;;;;;;;;;;;337655;28;855;-27
2022/04/19 00:22:19;;;;;;;;;;;;;;;;;;337817;28;835;-29
2022/04/19 00:22:29;;;;;;;;;;;;;;;;;;338064;28;949;-27
2022/04/19 00:22:39;;;;;;;;;;;;;;;;;;337776;28;1086;-25
2022/04/19 00:22:50;;;;;;;;;;;;;;;;;;337994;28;878;-26
2022/04/19 00:23:03;;;;;;;;;;;;;;;;;;337980;28;954;-26
2022/04/19 00:23:13;;;;;;;;;;;;;;;;;;337504;28;1246;-26
2022/04/19 00:23:23;;;;;;;;;;;;;;;;;;338034;28;973;-26
2022/04/19 00:23:33;;;;;;;;;;;;;;;;;;337971;28;772;-26
2022/04/19 00:23:46;;;;;;;;;;;;;;;;;;338050;28;827;-25
2022/04/19 00:23:56;;;;;;;;;;;;;;;;;;337919;29;988;-26
2022/04/19 00:24:06;;;;;;;;;;;;;;;;;;338025;28;803;-26
2022/04/19 00:24:17;;;;;;;;;;;;;;;;;;337640;28;1907;-26
2022/04/19 00:24:28;;;;;;;;;;;;;;;;;;337889;29;1048;-26
2022/04/19 00:24:38;;;;;;;;;;;;;;;;;;337824;28;687;-26
2022/04/19 00:24:49;;;;;;;;;;;;;;;;;;338010;28;859;-27
2022/04/19 00:24:59;;;;;;;;;;;;;;;;;;338041;28;839;-26
2022/04/19 00:25:10;;;;;;;;;;;;;;;;;;337744;29;973;-28
2022/04/19 00:25:20;;;;;;;;;;;;;;;;;;337990;29;1008;-26
2022/04/19 00:25:30;;;;;;;;;;;;;;;;;;338156;29;839;-26
2022/04/19 00:25:41;;;;;;;;;;;;;;;;;;337805;29;938;-26
2022/04/19 00:25:52;;;;;;;;;;;;;;;;;;338004;29;858;-26
2022/04/19 00:26:03;;;;;;;;;;;;;;;;;;337887;28;899;-27
2022/04/19 00:26:13;;;;;;;;;;;;;;;;;;337668;28;937;-28
2022/04/19 00:26:24;;;;;;;;;;;;;;;;;;337954;28;1049;-27
2022/04/19 00:26:34;;;;;;;;;;;;;;;;;;338047;28;775;-27
2022/04/19 00:26:44;;;;;;;;;;;;;;;;;;338065;29;771;-27
2022/04/19 00:26:55;;;;;;;;;;;;;;;;;;337700;28;1164;-25
2022/04/19 00:27:05;;;;;;;;;;;;;;;;;;337941;28;772;-26
2022/04/19 00:27:16;;;;;;;;;;;;;;;;;;337606;29;925;-26
2022/04/19 00:27:26;;;;;;;;;;;;;;;;;;337945;29;918;-27
2022/04/19 00:27:37;;;;;;;;;;;;;;;;;;337634;29;906;-26
2022/04/19 00:27:47;;;;;;;;;;;;;;;;;;336601;29;1229;-27
2022/04/19 00:27:58;;;;;;;;;;;;;;;;;;336575;29;996;-26
2022/04/19 00:28:08;;;;;;;;;;;;;;;;;;336420;29;961;-26
2022/04/19 00:28:19;;;;;;;;;;;;;;;;;;336289;29;1012;-27
2022/04/19 00:28:29;;;;;;;;;;;;;;;;;;337779;29;977;-26
2022/04/19 00:28:41;;;;;;;;;;;;;;;;;;337789;29;752;-26
2022/04/19 00:28:52;;;;;;;;;;;;;;;;;;338556;29;1218;-26
2022/04/19 00:29:02;;;;;;;;;;;;;;;;;;339159;29;924;-26
2022/04/19 00:29:12;;;;;;;;;;;;;;;;;;338975;28;847;-27
2022/04/19 00:29:23;;;;;;;;;;;;;;;;;;339091;29;1108;-27
2022/04/19 00:29:33;;;;;;;;;;;;;;;;;;338828;29;799;-26
2022/04/19 00:29:43;;;;;;;;;;;;;;;;;;339165;29;914;-26
2022/04/19 00:29:54;;;;;;;;;;;;;;;;;;338935;29;865;-27
2022/04/19 00:30:05;;;;;;;;;;;;;;;;;;339099;29;1197;-27
2022/04/19 00:30:16;;;;;;;;;;;;;;;;;;338831;29;855;-27
2022/04/19 00:30:26;;;;;;;;;;;;;;;;;;337130;29;1170;-26
2022/04/19 00:30:37;;;;;;;;;;;;;;;;;;336443;28;966;-27
2022/04/19 00:30:47;;;;;;;;;;;;;;;;;;336643;29;807;-26
2022/04/19 00:30:58;;;;;;;;;;;;;;;;;;335314;29;1699;-26
2022/04/19 00:31:08;;;;;;;;;;;;;;;;;;335378;28;858;-26
2022/04/19 00:31:18;;;;;;;;;;;;;;;;;;334874;29;998;-25
2022/04/19 00:31:29;;;;;;;;;;;;;;;;;;335398;28;788;-26
2022/04/19 00:31:39;;;;;;;;;;;;;;;;;;335837;28;922;-26
2022/04/19 00:31:50;;;;;;;;;;;;;;;;;;336629;28;963;-26
2022/04/19 00:32:01;;;;;;;;;;;;;;;;;;336582;28;938;-26
2022/04/19 00:32:11;;;;;;;;;;;;;;;;;;336321;28;788;-27
2022/04/19 00:32:23;;;;;;;;;;;;;;;;;;337176;29;879;-26
2022/04/19 00:32:34;;;;;;;;;;;;;;;;;;336206;28;1513;-31
2022/04/19 00:32:46;;;;;;;;;;;;;;;;;;336584;29;925;-27
2022/04/19 00:32:57;;;;;;;;;;;;;;;;;;336634;29;849;-26
2022/04/19 00:33:07;;;;;;;;;;;;;;;;;;336535;29;1004;-26
2022/04/19 00:33:17;;;;;;;;;;;;;;;;;;336287;28;1596;-28
2022/04/19 00:33:29;;;;;;;;;;;;;;;;;;335286;29;1144;-26
2022/04/19 00:33:44;;;;;;;;;;;;;;;;;;336315;29;957;-27
2022/04/19 00:33:54;;;;;;;;;;;;;;;;;;336518;29;970;-27
2022/04/19 00:34:04;;;;;;;;;;;;;;;;;;337910;28;1690;-27
2022/04/19 00:34:16;;;;;;;;;;;;;;;;;;337519;29;938;-27
2022/04/19 00:34:26;;;;;;;;;;;;;;;;;;337598;28;1182;-26
2022/04/19 00:34:36;;;;;;;;;;;;;;;;;;335274;29;1324;-27
2022/04/19 00:34:47;;;;;;;;;;;;;;;;;;335414;29;895;-26
2022/04/19 00:34:59;;;;;;;;;;;;;;;;;;335152;29;987;-27
2022/04/19 00:35:10;;;;;;;;;;;;;;;;;;335348;29;851;-26
2022/04/19 00:35:21;;;;;;;;;;;;;;;;;;337820;29;819;-26
2022/04/19 00:35:31;;;;;;;;;;;;;;;;;;337979;28;988;-26
2022/04/19 00:35:42;;;;;;;;;;;;;;;;;;337694;29;915;-27
2022/04/19 00:35:52;;;;;;;;;;;;;;;;;;337876;29;1335;-26
2022/04/19 00:36:02;;;;;;;;;;;;;;;;;;337924;29;982;-27
2022/04/19 00:36:13;;;;;;;;;;;;;;;;;;337491;29;960;-26
2022/04/19 00:36:24;;;;;;;;;;;;;;;;;;337830;29;989;-27
2022/04/19 00:36:34;;;;;;;;;;;;;;;;;;338626;29;847;-24
2022/04/19 00:36:44;;;;;;;;;;;;;;;;;;339159;29;987;-27
2022/04/19 00:36:55;;;;;;;;;;;;;;;;;;338601;29;1077;-26
2022/04/19 00:37:06;;;;;;;;;;;;;;;;;;339288;29;772;-26
2022/04/19 00:37:16;;;;;;;;;;;;;;;;;;338297;29;982;-26
2022/04/19 00:37:26;;;;;;;;;;;;;;;;;;337798;29;931;-27
2022/04/19 00:37:37;;;;;;;;;;;;;;;;;;337861;29;1670;-27
2022/04/19 00:37:49;;;;;;;;;;;;;;;;;;337112;29;1239;-27
2022/04/19 00:37:59;;;;;;;;;;;;;;;;;;337617;28;926;-26
2022/04/19 00:38:10;;;;;;;;;;;;;;;;;;337809;28;1570;-27
2022/04/19 00:38:20;;;;;;;;;;;;;;;;;;337724;29;938;-26
2022/04/19 00:38:30;;;;;;;;;;;;;;;;;;336555;29;1393;-27
2022/04/19 00:38:41;;;;;;;;;;;;;;;;;;336407;29;1120;-27
2022/04/19 00:38:51;;;;;;;;;;;;;;;;;;337969;29;795;-28
2022/04/19 00:39:01;;;;;;;;;;;;;;;;;;337846;29;1000;-26
2022/04/19 00:39:12;;;;;;;;;;;;;;;;;;337668;29;787;-26
2022/04/19 00:39:22;;;;;;;;;;;;;;;;;;337896;29;882;-26
2022/04/19 00:39:33;;;;;;;;;;;;;;;;;;336502;29;1646;-26
2022/04/19 00:39:43;;;;;;;;;;;;;;;;;;336500;29;946;-27
2022/04/19 00:39:57;;;;;;;;;;;;;;;;;;336475;29;876;-25
2022/04/19 00:40:08;;;;;;;;;;;;;;;;;;336654;28;958;-26
2022/04/19 00:40:19;;;;;;;;;;;;;;;;;;336261;28;787;-26
2022/04/19 00:40:30;;;;;;;;;;;;;;;;;;336454;29;938;-25
2022/04/19 00:40:40;;;;;;;;;;;;;;;;;;336559;29;850;-27
2022/04/19 00:40:51;;;;;;;;;;;;;;;;;;337754;29;898;-26
2022/04/19 00:41:01;;;;;;;;;;;;;;;;;;337815;29;938;-26
2022/04/19 00:41:12;;;;;;;;;;;;;;;;;;336316;28;1657;-28
2022/04/19 00:41:22;;;;;;;;;;;;;;;;;;336553;29;823;-26
2022/04/19 00:41:32;;;;;;;;;;;;;;;;;;337545;29;1257;-27
2022/04/19 00:41:43;;;;;;;;;;;;;;;;;;337601;28;1167;-25
2022/04/19 00:41:55;;;;;;;;;;;;;;;;;;337696;28;889;-26
2022/04/19 00:42:07;;;;;;;;;;;;;;;;;;337974;28;814;-26
2022/04/19 00:42:18;;;;;;;;;;;;;;;;;;337556;28;839;-26
2022/04/19 00:42:28;;;;;;;;;;;;;;;;;;337818;29;1135;-26
2022/04/19 00:42:39;;;;;;;;;;;;;;;;;;337853;28;819;-26
2022/04/19 00:42:49;;;;;;;;;;;;;;;;;;337913;28;862;-27
2022/04/19 00:43:00;;;;;;;;;;;;;;;;;;337649;28;1704;-26
2022/04/19 00:43:11;;;;;;;;;;;;;;;;;;337199;29;1160;-26
2022/04/19 00:43:21;;;;;;;;;;;;;;;;;;336517;28;1110;-27
2022/04/19 00:43:32;;;;;;;;;;;;;;;;;;336662;29;815;-26
2022/04/19 00:43:42;;;;;;;;;;;;;;;;;;336502;29;1085;-27
2022/04/19 00:43:52;;;;;;;;;;;;;;;;;;336563;29;946;-25
2022/04/19 00:44:03;;;;;;;;;;;;;;;;;;336586;29;839;-27
2022/04/19 00:44:13;;;;;;;;;;;;;;;;;;336004;29;1935;-27
2022/04/19 00:44:24;;;;;;;;;;;;;;;;;;336462;29;784;-27
2022/04/19 00:44:37;;;;;;;;;;;;;;;;;;336427;29;1303;-27
2022/04/19 00:44:47;;;;;;;;;;;;;;;;;;336522;29;895;-27
2022/04/19 00:44:58;;;;;;;;;;;;;;;;;;336609;29;942;-26
2022/04/19 00:45:09;;;;;;;;;;;;;;;;;;336963;29;1322;-26
2022/04/19 00:45:20;;;;;;;;;;;;;;;;;;336309;29;1691;-26
2022/04/19 00:45:34;;;;;;;;;;;;;;;;;;336496;29;954;-27
2022/04/19 00:45:44;;;;;;;;;;;;;;;;;;336594;29;859;-26
2022/04/19 00:45:55;;;;;;;;;;;;;;;;;;336592;28;807;-27
2022/04/19 00:46:05;;;;;;;;;;;;;;;;;;336481;28;923;-28
2022/04/19 00:46:15;;;;;;;;;;;;;;;;;;336298;29;933;-26
2022/04/19 00:46:26;;;;;;;;;;;;;;;;;;336594;29;985;-26
2022/04/19 00:46:36;;;;;;;;;;;;;;;;;;335185;28;1722;-25
2022/04/19 00:46:48;;;;;;;;;;;;;;;;;;335191;28;964;-26
2022/04/19 00:46:59;;;;;;;;;;;;;;;;;;336493;28;1457;-27
2022/04/19 00:47:10;;;;;;;;;;;;;;;;;;336393;29;1179;-26
2022/04/19 00:47:23;;;;;;;;;;;;;;;;;;336463;29;1068;-26
2022/04/19 00:47:34;;;;;;;;;;;;;;;;;;335240;28;1186;-27
2022/04/19 00:47:49;;;;;;;;;;;;;;;;;;335302;29;780;-27
2022/04/19 00:48:00;;;;;;;;;;;;;;;;;;335201;29;1055;-26
2022/04/19 00:48:11;;;;;;;;;;;;;;;;;;335179;29;871;-27
2022/04/19 00:48:22;;;;;;;;;;;;;;;;;;335290;29;807;-26
2022/04/19 00:48:34;;;;;;;;;;;;;;;;;;336333;28;1340;-27
2022/04/19 00:48:45;;;;;;;;;;;;;;;;;;336609;29;795;-26
2022/04/19 00:48:56;;;;;;;;;;;;;;;;;;336572;29;862;-26
2022/04/19 00:49:06;;;;;;;;;;;;;;;;;;336646;29;800;-26
2022/04/19 00:49:17;;;;;;;;;;;;;;;;;;338066;28;1191;-27
2022/04/19 00:49:29;;;;;;;;;;;;;;;;;;337905;29;1274;-27
2022/04/19 00:49:42;;;;;;;;;;;;;;;;;;335040;29;1273;-28
2022/04/19 00:49:53;;;;;;;;;;;;;;;;;;333715;29;1540;-26
2022/04/19 00:50:04;;;;;;;;;;;;;;;;;;335351;29;1001;-26
2022/04/19 00:50:17;;;;;;;;;;;;;;;;;;332358;29;1173;-30
2022/04/19 00:50:28;;;;;;;;;;;;;;;;;;335202;29;1476;-27
2022/04/19 00:50:41;;;;;;;;;;;;;;;;;;335237;29;1640;-26
2022/04/19 00:50:51;;;;;;;;;;;;;;;;;;335275;28;993;-29
2022/04/19 00:51:03;;;;;;;;;;;;;;;;;;335160;28;906;-27
2022/04/19 00:51:13;;;;;;;;;;;;;;;;;;334995;29;812;-27
2022/04/19 00:51:26;;;;;;;;;;;;;;;;;;333952;29;1339;-27
2022/04/19 00:51:37;;;;;;;;;;;;;;;;;;333646;29;1596;-27
2022/04/19 00:51:48;;;;;;;;;;;;;;;;;;333846;29;784;-26
2022/04/19 00:52:00;;;;;;;;;;;;;;;;;;333960;29;1529;-27
2022/04/19 00:52:11;;;;;;;;;;;;;;;;;;333729;29;1651;-26
2022/04/19 00:52:23;;;;;;;;;;;;;;;;;;331308;28;1174;-26
2022/04/19 00:52:35;;;;;;;;;;;;;;;;;;333860;29;1017;-26
2022/04/19 00:52:46;;;;;;;;;;;;;;;;;;333905;29;1053;-27
2022/04/19 00:52:58;;;;;;;;;;;;;;;;;;333735;29;967;-27
2022/04/19 00:53:11;;;;;;;;;;;;;;;;;;334094;29;812;-27
2022/04/19 00:53:26;;;;;;;;;;;;;;;;;;334048;29;1756;-28
2022/04/19 00:53:37;;;;;;;;;;;;;;;;;;335007;28;929;-28
2022/04/19 00:53:47;;;;;;;;;;;;;;;;;;336377;29;1152;-27
2022/04/19 00:53:59;;;;;;;;;;;;;;;;;;336543;28;1427;-28
2022/04/19 00:54:11;;;;;;;;;;;;;;;;;;336180;28;1523;-27
2022/04/19 00:54:22;;;;;;;;;;;;;;;;;;336635;28;772;-26
2022/04/19 00:54:33;;;;;;;;;;;;;;;;;;335240;28;1169;-27
2022/04/19 00:54:47;;;;;;;;;;;;;;;;;;336451;29;957;-27
2022/04/19 00:54:59;;;;;;;;;;;;;;;;;;336529;29;1676;-26
2022/04/19 00:55:11;;;;;;;;;;;;;;;;;;335072;28;1230;-27
2022/04/19 00:55:25;;;;;;;;;;;;;;;;;;337764;29;1877;-27
2022/04/19 00:55:36;;;;;;;;;;;;;;;;;;337797;28;1243;-26
2022/04/19 00:55:47;;;;;;;;;;;;;;;;;;336425;28;1402;-26
2022/04/19 00:55:58;;;;;;;;;;;;;;;;;;335118;29;1367;-27
2022/04/19 00:56:09;;;;;;;;;;;;;;;;;;334050;28;1359;-27
2022/04/19 00:56:19;;;;;;;;;;;;;;;;;;333679;28;957;-27
2022/04/19 00:56:29;;;;;;;;;;;;;;;;;;334053;29;792;-27
2022/04/19 00:56:41;;;;;;;;;;;;;;;;;;333847;28;1429;-27
2022/04/19 00:56:53;;;;;;;;;;;;;;;;;;332730;28;1008;-27
2022/04/19 00:57:04;;;;;;;;;;;;;;;;;;332809;29;805;-27
2022/04/19 00:57:19;;;;;;;;;;;;;;;;;;334889;28;1324;-27
2022/04/19 00:57:32;;;;;;;;;;;;;;;;;;335263;28;1288;-27
2022/04/19 00:57:43;;;;;;;;;;;;;;;;;;336274;29;1067;-26
2022/04/19 00:57:57;;;;;;;;;;;;;;;;;;336328;29;1181;-26
2022/04/19 00:58:08;;;;;;;;;;;;;;;;;;335258;29;1313;-26
2022/04/19 00:58:19;;;;;;;;;;;;;;;;;;336181;29;1197;-25
2022/04/19 00:58:31;;;;;;;;;;;;;;;;;;336392;29;926;-27
2022/04/19 00:58:41;;;;;;;;;;;;;;;;;;336578;29;819;-27
2022/04/19 00:58:53;;;;;;;;;;;;;;;;;;336333;29;1164;-25
2022/04/19 00:59:04;;;;;;;;;;;;;;;;;;336221;29;1118;-26
2022/04/19 00:59:15;;;;;;;;;;;;;;;;;;336216;29;787;-26
2022/04/19 00:59:27;;;;;;;;;;;;;;;;;;335156;29;1184;-25
2022/04/19 00:59:38;;;;;;;;;;;;;;;;;;335178;29;1349;-26
2022/04/19 00:59:49;;;;;;;;;;;;;;;;;;336453;29;784;-27
2022/04/19 00:59:59;;;;;;;;;;;;;;;;;;336459;29;846;-27
2022/04/19 01:00:12;;;;;;;;;;;;;;;;;;337344;29;904;-26
2022/04/19 01:00:29;;;;;;;;;;;;;;;;;;336405;29;1337;-26
2022/04/19 01:00:50;;;;;;;;;;;;;;;;;;336424;29;1218;-26
2022/04/19 01:01:02;;;;;;;;;;;;;;;;;;336425;29;951;-26
2022/04/19 01:01:13;;;;;;;;;;;;;;;;;;336302;29;799;-26
2022/04/19 01:01:23;;;;;;;;;;;;;;;;;;335223;29;1168;-27
2022/04/19 01:01:36;;;;;;;;;;;;;;;;;;337668;29;1194;-26
2022/04/19 01:01:47;;;;;;;;;;;;;;;;;;336297;29;1197;-26
2022/04/19 01:01:57;;;;;;;;;;;;;;;;;;335279;29;1144;-26
2022/04/19 01:02:07;;;;;;;;;;;;;;;;;;333711;29;2037;-26
2022/04/19 01:02:19;;;;;;;;;;;;;;;;;;336380;29;1406;-27
2022/04/19 01:02:30;;;;;;;;;;;;;;;;;;335193;29;1503;-27
2022/04/19 01:02:44;;;;;;;;;;;;;;;;;;332630;29;1490;-27
2022/04/19 01:02:56;;;;;;;;;;;;;;;;;;335182;29;1372;-26
2022/04/19 01:03:07;;;;;;;;;;;;;;;;;;335091;29;879;-27
2022/04/19 01:03:19;;;;;;;;;;;;;;;;;;335141;29;838;-27
2022/04/19 01:03:31;;;;;;;;;;;;;;;;;;335130;29;831;-27
2022/04/19 01:03:46;;;;;;;;;;;;;;;;;;337610;29;1022;-27
2022/04/19 01:04:02;;;;;;;;;;;;;;;;;;337675;29;2779;-26
2022/04/19 01:04:13;;;;;;;;;;;;;;;;;;336000;29;1911;-27
2022/04/19 01:04:23;;;;;;;;;;;;;;;;;;337830;29;1467;-27
2022/04/19 01:04:34;;;;;;;;;;;;;;;;;;336355;29;1408;-26
2022/04/19 01:04:44;;;;;;;;;;;;;;;;;;336643;29;930;-27
2022/04/19 01:04:56;;;;;;;;;;;;;;;;;;336396;29;1227;-27
2022/04/19 01:05:07;;;;;;;;;;;;;;;;;;336536;29;775;-27
2022/04/19 01:05:18;;;;;;;;;;;;;;;;;;336200;29;963;-26
2022/04/19 01:05:29;;;;;;;;;;;;;;;;;;333913;29;788;-27
2022/04/19 01:05:42;;;;;;;;;;;;;;;;;;335220;29;1217;-26
2022/04/19 01:05:58;;;;;;;;;;;;;;;;;;336451;29;1736;-26
2022/04/19 01:06:08;;;;;;;;;;;;;;;;;;335055;29;900;-27
2022/04/19 01:06:20;;;;;;;;;;;;;;;;;;336560;29;1466;-28
2022/04/19 01:06:33;;;;;;;;;;;;;;;;;;336075;29;1843;-29
2022/04/19 01:06:43;;;;;;;;;;;;;;;;;;336538;29;1317;-26
2022/04/19 01:06:54;;;;;;;;;;;;;;;;;;335018;29;1413;-25
2022/04/19 01:07:05;;;;;;;;;;;;;;;;;;333883;29;1371;-26
2022/04/19 01:07:19;;;;;;;;;;;;;;;;;;333864;29;1128;-26
2022/04/19 01:07:30;;;;;;;;;;;;;;;;;;335072;29;1652;-27
2022/04/19 01:07:45;;;;;;;;;;;;;;;;;;333866;29;1371;-26
2022/04/19 01:07:56;;;;;;;;;;;;;;;;;;333970;29;1512;-27
2022/04/19 01:08:13;;;;;;;;;;;;;;;;;;333607;29;1392;-27
2022/04/19 01:08:23;;;;;;;;;;;;;;;;;;333849;29;965;-27
2022/04/19 01:08:35;;;;;;;;;;;;;;;;;;332634;29;1319;-26
2022/04/19 01:08:45;;;;;;;;;;;;;;;;;;333822;29;1481;-26
2022/04/19 01:08:57;;;;;;;;;;;;;;;;;;333898;29;1039;-26
2022/04/19 01:09:10;;;;;;;;;;;;;;;;;;335091;29;1262;-26
2022/04/19 01:09:22;;;;;;;;;;;;;;;;;;335319;29;822;-27
2022/04/19 01:09:32;;;;;;;;;;;;;;;;;;336218;29;1125;-27
2022/04/19 01:09:43;;;;;;;;;;;;;;;;;;335202;29;1137;-26
2022/04/19 01:09:54;;;;;;;;;;;;;;;;;;335079;29;1184;-27
2022/04/19 01:10:06;;;;;;;;;;;;;;;;;;335125;29;1211;-26
2022/04/19 01:10:17;;;;;;;;;;;;;;;;;;335040;29;1143;-27
2022/04/19 01:10:28;;;;;;;;;;;;;;;;;;332589;29;2232;-27
2022/04/19 01:10:38;;;;;;;;;;;;;;;;;;333991;29;1225;-26
2022/04/19 01:10:50;;;;;;;;;;;;;;;;;;336285;29;1093;-26
2022/04/19 01:13:23;;;;;;;;;;;;;;;;;;339182;29;1575;-27
2022/04/19 01:13:36;;;;;;;;;;;;;;;;;;337794;29;1079;-27
2022/04/19 01:13:47;;;;;;;;;;;;;;;;;;338017;29;844;-26
2022/04/19 01:13:58;;;;;;;;;;;;;;;;;;337384;29;1121;-26
2022/04/19 01:14:10;;;;;;;;;;;;;;;;;;337396;29;757;-27
2022/04/19 01:14:21;;;;;;;;;;;;;;;;;;336494;29;1495;-25
2022/04/19 01:14:39;;;;;;;;;;;;;;;;;;335075;29;1238;-26
2022/04/19 01:14:50;;;;;;;;;;;;;;;;;;333914;29;1169;-27
2022/04/19 01:15:07;;;;;;;;;;;;;;;;;;333997;29;1380;-28
2022/04/19 01:15:34;;;;;;;;;;;;;;;;;;334006;29;844;-27
2022/04/19 01:15:54;;;;;;;;;;;;;;;;;;335992;29;1219;-26
2022/04/19 01:16:05;;;;;;;;;;;;;;;;;;335125;29;1209;-25
2022/04/19 01:16:16;;;;;;;;;;;;;;;;;;336159;29;1109;-27
2022/04/19 01:16:28;;;;;;;;;;;;;;;;;;336334;29;1440;-26
2022/04/19 01:16:40;;;;;;;;;;;;;;;;;;336527;29;1156;-32
2022/04/19 01:16:51;;;;;;;;;;;;;;;;;;336471;29;1233;-26
2022/04/19 01:17:03;;;;;;;;;;;;;;;;;;336501;29;1100;-28
2022/04/19 01:17:14;;;;;;;;;;;;;;;;;;333649;29;1189;-27
2022/04/19 01:17:27;;;;;;;;;;;;;;;;;;335129;29;1141;-26
2022/04/19 01:17:42;;;;;;;;;;;;;;;;;;335079;29;1237;-27
2022/04/19 01:17:53;;;;;;;;;;;;;;;;;;336366;29;997;-27
2022/04/19 01:18:04;;;;;;;;;;;;;;;;;;335301;29;1424;-26
2022/04/19 01:18:20;;;;;;;;;;;;;;;;;;336157;29;1479;-27
2022/04/19 01:18:32;;;;;;;;;;;;;;;;;;336429;29;1149;-26
2022/04/19 01:18:47;;;;;;;;;;;;;;;;;;335150;29;1865;-25
2022/04/19 01:18:58;;;;;;;;;;;;;;;;;;335178;29;793;-26
2022/04/19 01:19:15;;;;;;;;;;;;;;;;;;335095;29;894;-27
2022/04/19 01:19:26;;;;;;;;;;;;;;;;;;336288;29;1225;-28
2022/04/19 01:19:38;;;;;;;;;;;;;;;;;;336580;29;1379;-26
2022/04/19 01:19:51;;;;;;;;;;;;;;;;;;336365;29;1201;-27
2022/04/19 01:20:05;;;;;;;;;;;;;;;;;;335082;29;1272;-26
2022/04/19 01:20:15;;;;;;;;;;;;;;;;;;334925;29;760;-27
2022/04/19 01:20:28;;;;;;;;;;;;;;;;;;335115;29;1040;-26
2022/04/19 01:20:39;;;;;;;;;;;;;;;;;;335116;29;1345;-27
2022/04/19 01:20:52;;;;;;;;;;;;;;;;;;332650;29;1571;-26
2022/04/19 01:21:04;;;;;;;;;;;;;;;;;;332594;29;934;-29
2022/04/19 01:21:14;;;;;;;;;;;;;;;;;;332262;29;947;-26
2022/04/19 01:21:42;;;;;;;;;;;;;;;;;;335051;29;906;-27
2022/04/19 01:21:54;;;;;;;;;;;;;;;;;;336339;29;978;-26
2022/04/19 01:22:13;;;;;;;;;;;;;;;;;;335960;29;1333;-26
2022/04/19 01:22:27;;;;;;;;;;;;;;;;;;336402;29;1356;-26
2022/04/19 01:22:38;;;;;;;;;;;;;;;;;;336136;29;1153;-26
2022/04/19 01:22:52;;;;;;;;;;;;;;;;;;337161;29;815;-26
2022/04/19 01:23:07;;;;;;;;;;;;;;;;;;336137;29;1283;-26
2022/04/19 01:23:20;;;;;;;;;;;;;;;;;;335845;29;1204;-27
2022/04/19 01:23:30;;;;;;;;;;;;;;;;;;333854;29;1237;-26